Time,TemperatureF,DewpointF,PressureIn,WindDirection,WindDirectionDegrees,WindSpeedMPH,WindSpeedGustMPH,Humidity,HourlyPrecipIn,Conditions,Clouds,dailyrainin,SoftwareType,DateUTC
2013-06-10 00:01:00,66.7,55.0,29.94,East,90,0.0,2.0,66,0.00,,,0.00,meteohub,2013-06-10 04:01:00,
2013-06-10 00:02:00,66.7,55.0,29.94,East,90,0.0,2.0,66,0.00,,,0.00,meteohub,2013-06-10 04:02:00,
2013-06-10 00:05:00,66.7,55.0,29.94,East,90,0.0,2.0,66,0.00,,,0.00,meteohub,2013-06-10 04:05:00,
2013-06-10 00:11:00,66.6,55.2,29.94,NE,45,0.0,1.0,67,0.00,,,0.00,meteohub,2013-06-10 04:11:00,
2013-06-10 00:16:00,66.6,55.2,29.94,East,90,0.0,0.0,67,0.00,,,0.00,meteohub,2013-06-10 04:16:00,
2013-06-10 00:21:00,66.4,55.0,29.94,NE,45,0.0,0.0,67,0.00,,,0.00,meteohub,2013-06-10 04:21:00,
2013-06-10 00:26:00,66.0,55.9,29.94,NE,45,0.0,0.0,70,0.00,,,0.00,meteohub,2013-06-10 04:26:00,
2013-06-10 00:32:00,65.8,56.1,29.94,East,90,0.0,0.0,71,0.00,,,0.00,meteohub,2013-06-10 04:32:00,
2013-06-10 00:37:00,65.5,55.8,29.94,East,90,0.0,0.0,71,0.00,,,0.00,meteohub,2013-06-10 04:37:00,
2013-06-10 00:42:00,65.3,55.6,29.94,NE,45,0.0,0.0,71,0.00,,,0.00,meteohub,2013-06-10 04:42:00,
2013-06-10 00:47:00,65.5,55.4,29.93,East,90,1.0,2.0,70,0.00,,,0.00,meteohub,2013-06-10 04:47:00,
2013-06-10 00:52:00,65.5,55.8,29.93,East,90,0.0,2.0,71,0.00,,,0.00,meteohub,2013-06-10 04:52:00,
2013-06-10 00:58:00,65.7,55.9,29.93,West,270,0.0,2.0,71,0.00,,,0.00,meteohub,2013-06-10 04:58:00,
2013-06-10 01:03:00,65.7,55.9,29.93,East,90,0.0,2.0,71,0.00,,,0.00,meteohub,2013-06-10 05:03:00,
2013-06-10 01:08:00,65.7,56.8,29.93,East,90,0.0,2.0,73,0.00,,,0.00,meteohub,2013-06-10 05:08:00,
2013-06-10 01:13:00,65.3,57.2,29.93,East,90,0.0,2.0,75,0.00,,,0.00,meteohub,2013-06-10 05:13:00,
2013-06-10 01:18:00,64.8,57.0,29.94,SW,225,0.0,0.0,76,0.00,,,0.00,meteohub,2013-06-10 05:18:00,
2013-06-10 01:23:00,64.2,57.2,29.94,SW,225,0.0,0.0,78,0.00,,,0.00,meteohub,2013-06-10 05:23:00,
2013-06-10 01:29:00,63.9,57.6,29.94,NE,45,0.0,0.0,80,0.00,,,0.00,meteohub,2013-06-10 05:29:00,
2013-06-10 01:34:00,63.3,57.7,29.94,South,180,0.0,0.0,82,0.02,,,0.02,meteohub,2013-06-10 05:34:00,
2013-06-10 01:39:00,63.0,57.7,29.93,NW,315,0.0,0.0,83,0.05,,,0.05,meteohub,2013-06-10 05:39:00,
2013-06-10 01:44:00,62.6,58.1,29.93,NE,45,0.0,0.0,85,0.08,,,0.08,meteohub,2013-06-10 05:44:00,
2013-06-10 01:49:00,62.1,58.1,29.93,NE,45,0.0,1.0,87,0.11,,,0.11,meteohub,2013-06-10 05:49:00,
2013-06-10 01:54:00,61.9,58.3,29.93,NE,45,0.0,1.0,88,0.12,,,0.12,meteohub,2013-06-10 05:54:00,
2013-06-10 01:59:00,61.7,58.8,29.92,East,90,0.0,1.0,90,0.12,,,0.12,meteohub,2013-06-10 05:59:00,
2013-06-10 02:05:00,61.7,58.8,29.92,East,90,0.0,0.0,90,0.14,,,0.14,meteohub,2013-06-10 06:05:00,
2013-06-10 02:10:00,61.5,59.2,29.91,NE,45,0.0,0.0,92,0.14,,,0.17,meteohub,2013-06-10 06:10:00,
2013-06-10 02:15:00,61.5,59.2,29.91,WNW,293,0.0,1.0,92,0.20,,,0.18,meteohub,2013-06-10 06:15:00,
2013-06-10 02:20:00,61.5,59.5,29.91,NE,45,0.0,1.0,93,0.21,,,0.21,meteohub,2013-06-10 06:20:00,
2013-06-10 02:25:00,61.5,59.5,29.90,NE,45,0.0,1.0,93,0.22,,,0.24,meteohub,2013-06-10 06:25:00,
2013-06-10 02:30:00,61.5,59.7,29.90,East,90,0.0,0.0,94,0.20,,,0.24,meteohub,2013-06-10 06:30:00,
2013-06-10 02:36:00,61.3,59.5,29.91,South,180,0.0,2.0,94,0.22,,,0.28,meteohub,2013-06-10 06:36:00,
2013-06-10 02:41:00,61.3,59.5,29.91,NW,315,0.0,2.0,94,0.26,,,0.35,meteohub,2013-06-10 06:41:00,
2013-06-10 02:46:00,61.3,59.9,29.91,NW,315,0.0,2.0,95,0.26,,,0.37,meteohub,2013-06-10 06:46:00,
2013-06-10 02:52:00,61.3,59.9,29.90,NE,45,0.0,0.0,95,0.25,,,0.37,meteohub,2013-06-10 06:52:00,
2013-06-10 02:57:00,61.3,59.9,29.90,NE,45,0.0,1.0,95,0.25,,,0.38,meteohub,2013-06-10 06:57:00,
2013-06-10 03:02:00,61.3,60.3,29.89,North,0,0.0,1.0,96,0.24,,,0.38,meteohub,2013-06-10 07:02:00,
2013-06-10 03:07:00,61.3,60.3,29.89,SW,225,0.0,1.0,96,0.24,,,0.38,meteohub,2013-06-10 07:07:00,
2013-06-10 03:12:00,61.3,60.3,29.89,West,270,0.0,0.0,96,0.21,,,0.38,meteohub,2013-06-10 07:12:00,
2013-06-10 03:17:00,61.3,60.3,29.89,NE,45,0.0,0.0,96,0.18,,,0.38,meteohub,2013-06-10 07:17:00,
2013-06-10 03:22:00,61.5,60.6,29.89,SW,225,0.0,0.0,97,0.17,,,0.38,meteohub,2013-06-10 07:22:00,
2013-06-10 03:27:00,61.7,60.8,29.89,NE,45,0.0,0.0,97,0.14,,,0.38,meteohub,2013-06-10 07:27:00,
2013-06-10 03:32:00,61.7,60.8,29.88,East,90,0.0,0.0,97,0.12,,,0.38,meteohub,2013-06-10 07:32:00,
2013-06-10 03:37:00,61.7,60.8,29.88,North,0,0.0,1.0,97,0.09,,,0.38,meteohub,2013-06-10 07:37:00,
2013-06-10 03:42:00,61.7,60.8,29.88,South,180,2.0,2.0,97,0.02,,,0.38,meteohub,2013-06-10 07:42:00,
2013-06-10 03:47:00,61.7,61.2,29.88,SW,225,0.0,2.0,98,0.01,,,0.38,meteohub,2013-06-10 07:47:00,
2013-06-10 03:53:00,32.0,11.5,29.88,NNW,338,0.0,2.0,42,0.01,,,0.38,meteohub,2013-06-10 07:53:00,
2013-06-10 03:58:00,62.1,61.5,29.88,North,0,2.0,3.0,98,0.01,,,0.39,meteohub,2013-06-10 07:58:00,
2013-06-10 04:03:00,62.1,61.5,29.88,SW,225,2.0,4.0,98,0.01,,,0.39,meteohub,2013-06-10 08:03:00,
2013-06-10 04:08:00,62.1,61.5,29.88,NE,45,2.0,4.0,98,0.01,,,0.39,meteohub,2013-06-10 08:08:00,
2013-06-10 04:14:00,62.1,61.5,29.88,NE,45,0.0,4.0,98,0.01,,,0.39,meteohub,2013-06-10 08:14:00,
2013-06-10 04:19:00,62.1,61.5,29.88,East,90,0.0,3.0,98,0.01,,,0.39,meteohub,2013-06-10 08:19:00,
2013-06-10 04:24:00,62.1,61.5,29.87,East,90,0.0,3.0,98,0.01,,,0.39,meteohub,2013-06-10 08:24:00,
2013-06-10 04:29:00,62.1,61.5,29.87,East,90,0.0,2.0,98,0.01,,,0.39,meteohub,2013-06-10 08:29:00,
2013-06-10 04:34:00,62.1,61.5,29.86,NW,315,1.0,2.0,98,0.01,,,0.39,meteohub,2013-06-10 08:34:00,
2013-06-10 04:40:00,62.1,61.5,29.86,East,90,0.0,2.0,98,0.01,,,0.39,meteohub,2013-06-10 08:40:00,
2013-06-10 04:45:00,61.9,61.3,29.86,NE,45,2.0,2.0,98,0.01,,,0.39,meteohub,2013-06-10 08:45:00,
2013-06-10 04:50:00,61.9,61.3,29.86,East,90,0.0,2.0,98,0.01,,,0.39,meteohub,2013-06-10 08:50:00,
2013-06-10 04:55:00,61.9,61.3,29.86,SE,135,0.0,2.0,98,0.01,,,0.39,meteohub,2013-06-10 08:55:00,
2013-06-10 05:00:00,61.9,61.3,29.86,NE,45,0.0,2.0,98,0.00,,,0.39,meteohub,2013-06-10 09:00:00,
2013-06-10 05:06:00,61.9,61.3,29.86,East,90,0.0,2.0,98,0.00,,,0.39,meteohub,2013-06-10 09:06:00,
2013-06-10 05:11:00,61.9,61.3,29.86,NE,45,0.0,2.0,98,0.00,,,0.39,meteohub,2013-06-10 09:11:00,
2013-06-10 05:16:00,61.7,61.2,29.86,East,90,0.0,2.0,98,0.00,,,0.39,meteohub,2013-06-10 09:16:00,
2013-06-10 05:21:00,61.7,61.2,29.86,East,90,0.0,2.0,98,0.00,,,0.39,meteohub,2013-06-10 09:21:00,
2013-06-10 05:26:00,61.7,61.2,29.85,NE,45,0.0,1.0,98,0.00,,,0.39,meteohub,2013-06-10 09:26:00,
2013-06-10 05:31:00,61.7,61.2,29.85,NE,45,0.0,1.0,98,0.00,,,0.39,meteohub,2013-06-10 09:31:00,
2013-06-10 05:36:00,61.5,61.0,29.85,East,90,0.0,2.0,98,0.00,,,0.39,meteohub,2013-06-10 09:36:00,
2013-06-10 05:41:00,61.5,61.0,29.85,East,90,1.0,2.0,98,0.00,,,0.39,meteohub,2013-06-10 09:41:00,
2013-06-10 05:47:00,61.5,61.0,29.85,East,90,0.0,2.0,98,0.01,,,0.40,meteohub,2013-06-10 09:47:00,
2013-06-10 05:52:00,61.3,60.8,29.85,NW,315,0.0,2.0,98,0.01,,,0.40,meteohub,2013-06-10 09:52:00,
2013-06-10 05:57:00,61.3,60.8,29.84,East,90,0.0,2.0,98,0.01,,,0.40,meteohub,2013-06-10 09:57:00,
2013-06-10 06:02:00,61.3,60.8,29.85,NE,45,2.0,2.0,98,0.01,,,0.40,meteohub,2013-06-10 10:02:00,
2013-06-10 06:07:00,61.3,60.8,29.85,East,90,1.0,3.0,98,0.01,,,0.40,meteohub,2013-06-10 10:07:00,
2013-06-10 06:12:00,61.2,60.6,29.84,SW,225,1.0,3.0,98,0.04,,,0.41,meteohub,2013-06-10 10:12:00,
2013-06-10 06:17:00,61.2,60.6,29.84,North,0,0.0,3.0,98,0.04,,,0.43,meteohub,2013-06-10 10:17:00,
2013-06-10 06:22:00,61.2,60.6,29.84,NE,45,2.0,3.0,98,0.05,,,0.44,meteohub,2013-06-10 10:22:00,
2013-06-10 06:27:00,61.2,60.6,29.84,NE,45,0.0,2.0,98,0.05,,,0.44,meteohub,2013-06-10 10:27:00,
2013-06-10 06:32:00,61.2,60.6,29.84,East,90,0.0,2.0,98,0.06,,,0.45,meteohub,2013-06-10 10:32:00,
2013-06-10 06:37:00,61.2,60.6,29.84,East,90,0.0,2.0,98,0.06,,,0.45,meteohub,2013-06-10 10:37:00,
2013-06-10 06:42:00,61.2,60.6,29.83,NE,45,0.0,0.0,98,0.06,,,0.45,meteohub,2013-06-10 10:42:00,
2013-06-10 06:47:00,61.2,60.6,29.83,NE,45,0.0,1.0,98,0.06,,,0.46,meteohub,2013-06-10 10:47:00,
2013-06-10 06:53:00,61.2,60.6,29.83,East,90,0.0,1.0,98,0.07,,,0.47,meteohub,2013-06-10 10:53:00,
2013-06-10 06:58:00,61.2,60.6,29.84,North,0,0.0,1.0,98,0.07,,,0.47,meteohub,2013-06-10 10:58:00,
2013-06-10 07:03:00,61.2,60.6,29.83,NE,45,1.0,1.0,98,0.08,,,0.48,meteohub,2013-06-10 11:03:00,
2013-06-10 07:08:00,61.2,60.6,29.83,East,90,2.0,2.0,98,0.09,,,0.48,meteohub,2013-06-10 11:08:00,
2013-06-10 07:13:00,61.2,60.6,29.83,East,90,0.0,1.0,98,0.07,,,0.50,meteohub,2013-06-10 11:13:00,
2013-06-10 07:18:00,61.2,60.6,29.83,East,90,0.0,2.0,98,0.09,,,0.52,meteohub,2013-06-10 11:18:00,
2013-06-10 07:24:00,61.2,60.6,29.83,NE,45,0.0,2.0,98,0.12,,,0.56,meteohub,2013-06-10 11:24:00,
2013-06-10 07:29:00,61.2,60.6,29.83,East,90,0.0,2.0,98,0.15,,,0.60,meteohub,2013-06-10 11:29:00,
2013-06-10 07:34:00,61.2,60.6,29.83,East,90,0.0,2.0,98,0.18,,,0.63,meteohub,2013-06-10 11:34:00,
2013-06-10 07:39:00,61.3,60.8,29.83,East,90,0.0,2.0,98,0.18,,,0.63,meteohub,2013-06-10 11:39:00,
2013-06-10 07:44:00,61.3,60.8,29.83,East,90,0.0,2.0,98,0.18,,,0.64,meteohub,2013-06-10 11:44:00,
2013-06-10 07:49:00,61.3,60.8,29.83,East,90,2.0,2.0,98,0.17,,,0.64,meteohub,2013-06-10 11:49:00,
2013-06-10 07:55:00,61.3,60.8,29.82,East,90,0.0,1.0,98,0.18,,,0.65,meteohub,2013-06-10 11:55:00,
2013-06-10 08:00:00,61.3,60.8,29.82,East,90,0.0,2.0,98,0.18,,,0.65,meteohub,2013-06-10 12:00:00,
2013-06-10 08:05:00,61.5,61.0,29.82,NE,45,0.0,1.0,98,0.15,,,0.65,meteohub,2013-06-10 12:05:00,
2013-06-10 08:10:00,61.5,61.0,29.82,East,90,0.0,1.0,98,0.15,,,0.66,meteohub,2013-06-10 12:10:00,
2013-06-10 08:15:00,61.5,61.0,29.82,South,180,1.0,2.0,98,0.15,,,0.69,meteohub,2013-06-10 12:15:00,
2013-06-10 08:20:00,61.5,61.0,29.82,South,180,1.0,2.0,98,0.15,,,0.74,meteohub,2013-06-10 12:20:00,
2013-06-10 08:26:00,61.7,61.2,29.82,East,90,0.0,2.0,98,0.17,,,0.78,meteohub,2013-06-10 12:26:00,
2013-06-10 08:31:00,61.7,61.2,29.81,East,90,0.0,1.0,98,0.17,,,0.79,meteohub,2013-06-10 12:31:00,
2013-06-10 08:36:00,61.7,61.2,29.81,East,90,0.0,1.0,98,0.18,,,0.81,meteohub,2013-06-10 12:36:00,
2013-06-10 08:41:00,61.7,61.2,29.81,East,90,0.0,0.0,98,0.19,,,0.83,meteohub,2013-06-10 12:41:00,
2013-06-10 08:46:00,61.9,61.3,29.81,East,90,0.0,0.0,98,0.19,,,0.84,meteohub,2013-06-10 12:46:00,
2013-06-10 08:52:00,61.9,61.3,29.81,East,90,0.0,1.0,98,0.19,,,0.84,meteohub,2013-06-10 12:52:00,
2013-06-10 08:57:00,61.9,61.3,29.82,East,90,0.0,1.0,98,0.19,,,0.84,meteohub,2013-06-10 12:57:00,
2013-06-10 09:02:00,62.1,61.5,29.82,East,90,0.0,1.0,98,0.20,,,0.85,meteohub,2013-06-10 13:02:00,
2013-06-10 09:07:00,62.1,61.5,29.81,East,90,0.0,1.0,98,0.20,,,0.85,meteohub,2013-06-10 13:07:00,
2013-06-10 09:12:00,62.1,61.5,29.81,East,90,0.0,2.0,98,0.19,,,0.85,meteohub,2013-06-10 13:12:00,
2013-06-10 09:18:00,62.1,61.5,29.82,East,90,0.0,2.0,98,0.11,,,0.85,meteohub,2013-06-10 13:18:00,
2013-06-10 09:23:00,62.1,61.5,29.82,East,90,0.0,2.0,98,0.11,,,0.85,meteohub,2013-06-10 13:23:00,
2013-06-10 09:28:00,62.2,61.7,29.82,SE,135,0.0,0.0,98,0.07,,,0.85,meteohub,2013-06-10 13:28:00,
2013-06-10 09:33:00,62.2,61.7,29.82,SW,225,0.0,0.0,98,0.05,,,0.85,meteohub,2013-06-10 13:33:00,
2013-06-10 09:38:00,62.1,61.5,29.81,NE,45,0.0,0.0,98,0.02,,,0.85,meteohub,2013-06-10 13:38:00,
2013-06-10 09:43:00,62.2,61.7,29.81,NE,45,0.0,0.0,98,0.02,,,0.85,meteohub,2013-06-10 13:43:00,
2013-06-10 09:48:00,62.2,61.7,29.81,West,270,0.0,0.0,98,0.02,,,0.86,meteohub,2013-06-10 13:48:00,
2013-06-10 09:54:00,62.4,61.9,29.81,East,90,0.0,1.0,98,0.04,,,0.87,meteohub,2013-06-10 13:54:00,
2013-06-10 09:59:00,62.4,61.9,29.81,East,90,0.0,1.0,98,0.04,,,0.87,meteohub,2013-06-10 13:59:00,
2013-06-10 10:04:00,62.6,61.7,29.80,East,90,0.0,1.0,97,0.02,,,0.87,meteohub,2013-06-10 14:04:00,
2013-06-10 10:09:00,62.8,61.9,29.80,East,90,0.0,0.0,97,0.02,,,0.87,meteohub,2013-06-10 14:09:00,
2013-06-10 10:14:00,63.0,62.1,29.80,NE,45,0.0,0.0,97,0.02,,,0.87,meteohub,2013-06-10 14:14:00,
2013-06-10 10:20:00,63.1,62.2,29.80,NE,45,0.0,1.0,97,0.02,,,0.87,meteohub,2013-06-10 14:20:00,
2013-06-10 10:25:00,63.1,62.2,29.80,East,90,1.0,1.0,97,0.02,,,0.87,meteohub,2013-06-10 14:25:00,
2013-06-10 10:30:00,63.3,62.4,29.79,East,90,0.0,2.0,97,0.02,,,0.87,meteohub,2013-06-10 14:30:00,
2013-06-10 10:35:00,63.5,62.6,29.79,East,90,0.0,2.0,97,0.02,,,0.87,meteohub,2013-06-10 14:35:00,
2013-06-10 10:40:00,63.7,62.8,29.78,East,90,0.0,2.0,97,0.02,,,0.87,meteohub,2013-06-10 14:40:00,
2013-06-10 10:46:00,63.9,63.0,29.79,NW,315,0.0,2.0,97,0.01,,,0.87,meteohub,2013-06-10 14:46:00,
2013-06-10 10:51:00,64.0,63.1,29.78,SW,225,0.0,2.0,97,0.00,,,0.87,meteohub,2013-06-10 14:51:00,
2013-06-10 10:56:00,64.2,63.3,29.78,East,90,0.0,0.0,97,0.00,,,0.87,meteohub,2013-06-10 14:56:00,
2013-06-10 11:01:00,64.4,64.0,29.78,East,90,0.0,0.0,99,0.00,,,0.87,meteohub,2013-06-10 15:01:00,
2013-06-10 11:07:00,64.6,64.2,29.78,South,180,0.0,0.0,99,0.00,,,0.87,meteohub,2013-06-10 15:07:00,
2013-06-10 11:12:00,64.8,64.4,29.78,East,90,0.0,2.0,99,0.00,,,0.87,meteohub,2013-06-10 15:12:00,
2013-06-10 11:17:00,64.9,64.6,29.78,SW,225,2.0,2.0,99,0.00,,,0.87,meteohub,2013-06-10 15:17:00,
2013-06-10 11:22:00,64.9,64.6,29.78,South,180,0.0,2.0,99,0.00,,,0.87,meteohub,2013-06-10 15:22:00,
2013-06-10 11:27:00,65.1,64.8,29.78,East,90,0.0,2.0,99,0.00,,,0.87,meteohub,2013-06-10 15:27:00,
2013-06-10 11:32:00,65.1,64.8,29.79,East,90,0.0,2.0,99,0.00,,,0.87,meteohub,2013-06-10 15:32:00,
2013-06-10 11:37:00,65.1,64.8,29.78,South,180,0.0,0.0,99,0.00,,,0.87,meteohub,2013-06-10 15:37:00,
2013-06-10 11:42:00,65.1,64.8,29.79,NE,45,0.0,0.0,99,0.00,,,0.87,meteohub,2013-06-10 15:42:00,
2013-06-10 11:47:00,65.1,64.8,29.79,West,270,0.0,0.0,99,0.00,,,0.87,meteohub,2013-06-10 15:47:00,
2013-06-10 11:52:00,65.1,64.8,29.79,NE,45,0.0,0.0,99,0.00,,,0.87,meteohub,2013-06-10 15:52:00,
2013-06-10 11:57:00,65.3,64.9,29.79,NE,45,0.0,0.0,99,0.00,,,0.87,meteohub,2013-06-10 15:57:00,
2013-06-10 12:02:00,65.5,65.1,29.79,NE,45,0.0,0.0,99,0.00,,,0.87,meteohub,2013-06-10 16:02:00,
2013-06-10 12:07:00,65.5,65.1,29.79,East,90,0.0,0.0,99,0.00,,,0.87,meteohub,2013-06-10 16:07:00,
2013-06-10 12:13:00,65.7,65.3,29.79,SE,135,0.0,0.0,99,0.00,,,0.87,meteohub,2013-06-10 16:13:00,
2013-06-10 12:18:00,65.8,65.5,29.79,East,90,0.0,0.0,99,0.00,,,0.87,meteohub,2013-06-10 16:18:00,
2013-06-10 12:23:00,65.8,65.5,29.79,East,90,0.0,0.0,99,0.00,,,0.87,meteohub,2013-06-10 16:23:00,
2013-06-10 12:28:00,66.0,65.7,29.79,East,90,0.0,0.0,99,0.00,,,0.87,meteohub,2013-06-10 16:28:00,
2013-06-10 12:33:00,66.2,65.8,29.78,NW,315,0.0,0.0,99,0.00,,,0.87,meteohub,2013-06-10 16:33:00,
2013-06-10 12:38:00,66.2,65.8,29.78,East,90,0.0,0.0,99,0.00,,,0.87,meteohub,2013-06-10 16:38:00,
2013-06-10 12:44:00,66.4,66.0,29.78,North,0,0.0,0.0,99,0.00,,,0.87,meteohub,2013-06-10 16:44:00,
2013-06-10 12:49:00,66.4,66.0,29.78,NE,45,0.0,0.0,99,0.00,,,0.87,meteohub,2013-06-10 16:49:00,
2013-06-10 12:54:00,66.6,66.2,29.78,East,90,0.0,0.0,99,0.00,,,0.87,meteohub,2013-06-10 16:54:00,
2013-06-10 12:59:00,66.7,66.4,29.78,East,90,0.0,0.0,99,0.00,,,0.87,meteohub,2013-06-10 16:59:00,
2013-06-10 13:04:00,66.7,66.4,29.78,East,90,0.0,0.0,99,0.00,,,0.87,meteohub,2013-06-10 17:04:00,
2013-06-10 13:10:00,66.7,66.4,29.78,East,90,0.0,0.0,99,0.00,,,0.87,meteohub,2013-06-10 17:10:00,
2013-06-10 13:15:00,66.7,66.4,29.78,East,90,0.0,0.0,99,0.00,,,0.87,meteohub,2013-06-10 17:15:00,
2013-06-10 13:20:00,66.7,66.4,29.78,East,90,0.0,0.0,99,0.00,,,0.87,meteohub,2013-06-10 17:20:00,
2013-06-10 13:25:00,66.7,66.4,29.77,East,90,0.0,0.0,99,0.00,,,0.87,meteohub,2013-06-10 17:25:00,
2013-06-10 13:30:00,66.7,66.4,29.78,SW,225,0.0,0.0,99,0.00,,,0.87,meteohub,2013-06-10 17:30:00,
2013-06-10 13:35:00,66.7,66.4,29.78,North,0,0.0,0.0,99,0.00,,,0.87,meteohub,2013-06-10 17:35:00,
2013-06-10 13:41:00,66.9,66.6,29.77,East,90,0.0,0.0,99,0.00,,,0.87,meteohub,2013-06-10 17:41:00,
2013-06-10 13:46:00,67.1,66.7,29.77,East,90,0.0,0.0,99,0.00,,,0.87,meteohub,2013-06-10 17:46:00,
2013-06-10 13:52:00,67.5,67.1,29.77,East,90,0.0,0.0,99,0.00,,,0.87,meteohub,2013-06-10 17:52:00,
2013-06-10 13:57:00,67.6,67.3,29.76,North,0,0.0,0.0,99,0.00,,,0.87,meteohub,2013-06-10 17:57:00,
2013-06-10 14:02:00,67.6,67.3,29.76,West,270,0.0,0.0,99,0.00,,,0.87,meteohub,2013-06-10 18:02:00,
2013-06-10 14:07:00,68.0,67.6,29.76,South,180,0.0,0.0,99,0.00,,,0.87,meteohub,2013-06-10 18:07:00,
2013-06-10 14:12:00,68.0,67.6,29.77,East,90,0.0,0.0,99,0.00,,,0.87,meteohub,2013-06-10 18:12:00,
2013-06-10 14:17:00,67.6,67.3,29.76,South,180,0.0,0.0,99,0.00,,,0.87,meteohub,2013-06-10 18:17:00,
2013-06-10 14:22:00,67.6,67.3,29.76,SW,225,0.0,0.0,99,0.00,,,0.87,meteohub,2013-06-10 18:22:00,
2013-06-10 14:27:00,68.0,67.6,29.76,South,180,0.0,0.0,99,0.00,,,0.87,meteohub,2013-06-10 18:27:00,
2013-06-10 14:32:00,68.0,67.6,29.76,SW,225,0.0,0.0,99,0.00,,,0.87,meteohub,2013-06-10 18:32:00,
2013-06-10 14:37:00,68.2,67.8,29.76,NE,45,0.0,0.0,99,0.01,,,0.89,meteohub,2013-06-10 18:37:00,
2013-06-10 14:42:00,68.5,68.2,29.76,East,90,0.0,0.0,99,0.01,,,0.89,meteohub,2013-06-10 18:42:00,
2013-06-10 14:47:00,69.1,68.7,29.75,SW,225,0.0,0.0,99,0.01,,,0.89,meteohub,2013-06-10 18:47:00,
2013-06-10 14:52:00,69.4,69.1,29.76,SW,225,0.0,0.0,99,0.01,,,0.89,meteohub,2013-06-10 18:52:00,
2013-06-10 14:57:00,69.4,69.1,29.75,SW,225,0.0,0.0,99,0.01,,,0.89,meteohub,2013-06-10 18:57:00,
2013-06-10 15:02:00,69.6,69.1,29.75,SW,225,0.0,0.0,98,0.01,,,0.89,meteohub,2013-06-10 19:02:00,
2013-06-10 15:07:00,70.0,69.1,29.75,SW,225,0.0,0.0,97,0.01,,,0.89,meteohub,2013-06-10 19:07:00,
2013-06-10 15:12:00,70.0,68.7,29.75,South,180,0.0,0.0,96,0.01,,,0.89,meteohub,2013-06-10 19:12:00,
2013-06-10 15:17:00,70.0,68.5,29.75,NW,315,0.0,0.0,95,0.01,,,0.89,meteohub,2013-06-10 19:17:00,
2013-06-10 15:23:00,70.3,68.5,29.75,SW,225,0.0,1.0,94,0.01,,,0.89,meteohub,2013-06-10 19:23:00,
2013-06-10 15:28:00,70.5,68.7,29.75,SW,225,0.0,1.0,94,0.01,,,0.89,meteohub,2013-06-10 19:28:00,
2013-06-10 15:33:00,70.7,68.5,29.74,East,90,0.0,1.0,93,0.00,,,0.89,meteohub,2013-06-10 19:33:00,
2013-06-10 15:38:00,70.9,68.7,29.75,South,180,0.0,0.0,93,0.00,,,0.89,meteohub,2013-06-10 19:38:00,
2013-06-10 15:43:00,70.9,68.4,29.75,SW,225,0.0,1.0,92,0.00,,,0.89,meteohub,2013-06-10 19:43:00,
2013-06-10 15:48:00,70.9,68.4,29.75,South,180,0.0,1.0,92,0.00,,,0.89,meteohub,2013-06-10 19:48:00,
2013-06-10 15:54:00,70.9,68.4,29.75,NE,45,0.0,1.0,92,0.00,,,0.89,meteohub,2013-06-10 19:54:00,
2013-06-10 15:59:00,70.9,68.2,29.75,East,90,0.0,0.0,91,0.00,,,0.89,meteohub,2013-06-10 19:59:00,
2013-06-10 16:04:00,71.2,68.5,29.74,South,180,0.0,0.0,91,0.00,,,0.89,meteohub,2013-06-10 20:04:00,
2013-06-10 16:09:00,70.9,67.8,29.74,West,270,2.0,0.0,90,0.00,,,0.89,meteohub,2013-06-10 20:09:00,
2013-06-10 16:14:00,71.2,67.5,29.74,West,270,0.0,0.0,88,0.00,,,0.89,meteohub,2013-06-10 20:14:00,
2013-06-10 16:19:00,71.4,67.6,29.74,South,180,0.0,2.0,88,0.00,,,0.89,meteohub,2013-06-10 20:19:00,
2013-06-10 16:25:00,71.6,67.5,29.73,North,0,0.0,2.0,87,0.00,,,0.89,meteohub,2013-06-10 20:25:00,
2013-06-10 16:30:00,71.8,67.6,29.73,East,90,1.0,1.0,87,0.00,,,0.89,meteohub,2013-06-10 20:30:00,
2013-06-10 16:35:00,71.8,67.3,29.73,East,90,0.0,1.0,86,0.00,,,0.89,meteohub,2013-06-10 20:35:00,
2013-06-10 16:40:00,72.0,67.8,29.73,South,180,1.0,1.0,87,0.00,,,0.89,meteohub,2013-06-10 20:40:00,
2013-06-10 16:45:00,72.0,67.8,29.73,East,90,0.0,1.0,87,0.00,,,0.89,meteohub,2013-06-10 20:45:00,
2013-06-10 16:51:00,72.0,67.8,29.73,East,90,0.0,1.0,87,0.00,,,0.89,meteohub,2013-06-10 20:51:00,
2013-06-10 16:56:00,72.1,68.0,29.73,West,270,0.0,1.0,87,0.00,,,0.89,meteohub,2013-06-10 20:56:00,
2013-06-10 17:01:00,72.1,67.6,29.73,North,0,0.0,0.0,86,0.00,,,0.89,meteohub,2013-06-10 21:01:00,
2013-06-10 17:06:00,72.3,67.8,29.73,South,180,0.0,1.0,86,0.00,,,0.89,meteohub,2013-06-10 21:06:00,
2013-06-10 17:11:00,72.9,68.7,29.73,SW,225,0.0,2.0,87,0.00,,,0.89,meteohub,2013-06-10 21:11:00,
2013-06-10 17:16:00,73.2,69.1,29.73,East,90,0.0,2.0,87,0.00,,,0.89,meteohub,2013-06-10 21:16:00,
2013-06-10 17:22:00,73.6,69.1,29.72,East,90,0.0,2.0,86,0.00,,,0.89,meteohub,2013-06-10 21:22:00,
2013-06-10 17:27:00,73.8,69.3,29.72,East,90,2.0,0.0,86,0.00,,,0.89,meteohub,2013-06-10 21:27:00,
2013-06-10 17:32:00,73.8,68.9,29.72,East,90,0.0,3.0,85,0.00,,,0.89,meteohub,2013-06-10 21:32:00,
2013-06-10 17:37:00,73.6,68.7,29.72,East,90,0.0,3.0,85,0.00,,,0.89,meteohub,2013-06-10 21:37:00,
2013-06-10 17:42:00,73.2,68.2,29.73,NW,315,0.0,3.0,84,0.00,,,0.89,meteohub,2013-06-10 21:42:00,
2013-06-10 17:47:00,72.9,68.0,29.72,NW,315,0.0,2.0,85,0.00,,,0.89,meteohub,2013-06-10 21:47:00,
2013-06-10 17:52:00,72.5,67.8,29.72,NW,315,0.0,0.0,85,0.00,,,0.89,meteohub,2013-06-10 21:52:00,
2013-06-10 17:57:00,72.1,67.5,29.73,South,180,0.0,0.0,85,0.00,,,0.89,meteohub,2013-06-10 21:57:00,
2013-06-10 18:03:00,71.6,67.1,29.73,South,180,0.0,0.0,86,0.00,,,0.89,meteohub,2013-06-10 22:03:00,
2013-06-10 18:08:00,71.1,67.3,29.73,NE,45,0.0,1.0,88,0.00,,,0.89,meteohub,2013-06-10 22:08:00,
2013-06-10 18:13:00,70.9,67.5,29.73,East,90,1.0,1.0,89,0.01,,,0.90,meteohub,2013-06-10 22:13:00,
2013-06-10 18:18:00,70.3,67.3,29.73,NE,45,0.0,1.0,90,0.04,,,0.92,meteohub,2013-06-10 22:18:00,
2013-06-10 18:23:00,70.2,67.6,29.72,East,90,0.0,1.0,92,0.04,,,0.92,meteohub,2013-06-10 22:23:00,
2013-06-10 18:28:00,69.8,67.3,29.72,East,90,0.0,1.0,92,0.04,,,0.92,meteohub,2013-06-10 22:28:00,
2013-06-10 18:34:00,69.4,67.3,29.72,East,90,0.0,0.0,93,0.04,,,0.92,meteohub,2013-06-10 22:34:00,
2013-06-10 18:39:00,69.3,67.5,29.72,East,90,0.0,0.0,94,0.04,,,0.92,meteohub,2013-06-10 22:39:00,
2013-06-10 18:44:00,69.3,67.5,29.73,NE,45,0.0,2.0,94,0.05,,,0.93,meteohub,2013-06-10 22:44:00,
2013-06-10 18:49:00,69.3,67.8,29.73,North,0,0.0,2.0,95,0.05,,,0.93,meteohub,2013-06-10 22:49:00,
2013-06-10 18:54:00,69.1,67.6,29.73,North,0,0.0,2.0,95,0.05,,,0.93,meteohub,2013-06-10 22:54:00,
2013-06-10 19:00:00,68.9,67.5,29.72,North,0,0.0,0.0,95,0.05,,,0.93,meteohub,2013-06-10 23:00:00,
2013-06-10 19:05:00,68.9,67.5,29.73,North,0,0.0,0.0,95,0.05,,,0.93,meteohub,2013-06-10 23:05:00,
2013-06-10 19:10:00,68.9,67.6,29.73,North,0,0.0,0.0,96,0.02,,,0.93,meteohub,2013-06-10 23:10:00,
2013-06-10 19:15:00,68.7,67.5,29.73,North,0,0.0,0.0,96,0.01,,,0.93,meteohub,2013-06-10 23:15:00,
2013-06-10 19:20:00,68.5,67.3,29.73,North,0,0.0,0.0,96,0.01,,,0.93,meteohub,2013-06-10 23:20:00,
2013-06-10 19:26:00,68.4,67.1,29.73,North,0,0.0,0.0,96,0.01,,,0.93,meteohub,2013-06-10 23:26:00,
2013-06-10 19:31:00,68.4,67.1,29.73,North,0,0.0,0.0,96,0.01,,,0.93,meteohub,2013-06-10 23:31:00,
2013-06-10 19:36:00,68.2,67.3,29.73,North,0,0.0,0.0,97,0.01,,,0.93,meteohub,2013-06-10 23:36:00,
2013-06-10 19:42:00,68.2,67.3,29.73,North,0,0.0,0.0,97,0.00,,,0.93,meteohub,2013-06-10 23:42:00,
2013-06-10 19:47:00,68.2,67.3,29.73,North,0,0.0,0.0,97,0.00,,,0.93,meteohub,2013-06-10 23:47:00,
2013-06-10 19:52:00,68.0,67.1,29.73,North,0,0.0,0.0,97,0.01,,,0.94,meteohub,2013-06-10 23:52:00,
2013-06-10 19:57:00,68.0,67.1,29.73,North,0,0.0,0.0,97,0.02,,,0.96,meteohub,2013-06-10 23:57:00,
2013-06-10 20:02:00,68.0,67.1,29.73,North,0,0.0,0.0,97,0.02,,,0.96,meteohub,2013-06-11 00:02:00,
2013-06-10 20:08:00,67.8,67.3,29.73,North,0,0.0,0.0,98,0.02,,,0.96,meteohub,2013-06-11 00:08:00,
2013-06-10 20:13:00,67.6,67.1,29.73,South,180,0.0,0.0,98,0.02,,,0.96,meteohub,2013-06-11 00:13:00,
2013-06-10 20:18:00,67.6,67.1,29.73,East,90,0.0,0.0,98,0.04,,,0.97,meteohub,2013-06-11 00:18:00,
2013-06-10 20:23:00,67.6,67.1,29.74,East,90,0.0,0.0,98,0.04,,,0.97,meteohub,2013-06-11 00:23:00,
2013-06-10 20:28:00,67.5,67.1,29.74,SW,225,0.0,0.0,99,0.04,,,0.97,meteohub,2013-06-11 00:28:00,
2013-06-10 20:33:00,67.5,67.1,29.74,South,180,0.0,0.0,99,0.04,,,0.97,meteohub,2013-06-11 00:33:00,
2013-06-10 20:38:00,67.3,66.9,29.74,South,180,0.0,0.0,99,0.04,,,0.97,meteohub,2013-06-11 00:38:00,
2013-06-10 20:44:00,67.3,66.9,29.74,North,0,0.0,0.0,99,0.04,,,0.97,meteohub,2013-06-11 00:44:00,
2013-06-10 20:49:00,67.1,66.7,29.74,NE,45,0.0,0.0,99,0.04,,,0.97,meteohub,2013-06-11 00:49:00,
2013-06-10 20:54:00,67.1,66.7,29.74,NE,45,0.0,0.0,99,0.02,,,0.97,meteohub,2013-06-11 00:54:00,
2013-06-10 20:59:00,66.9,66.6,29.74,NE,45,0.0,0.0,99,0.01,,,0.97,meteohub,2013-06-11 00:59:00,
2013-06-10 21:04:00,66.9,66.6,29.75,NE,45,0.0,0.0,99,0.01,,,0.97,meteohub,2013-06-11 01:04:00,
2013-06-10 21:09:00,66.9,66.6,29.74,NE,45,0.0,0.0,99,0.01,,,0.97,meteohub,2013-06-11 01:09:00,
2013-06-10 21:14:00,66.7,66.4,29.75,NE,45,0.0,0.0,99,0.01,,,0.97,meteohub,2013-06-11 01:14:00,
2013-06-10 21:20:00,66.7,66.4,29.74,NE,45,0.0,0.0,99,0.00,,,0.97,meteohub,2013-06-11 01:20:00,
2013-06-10 21:25:00,66.7,66.4,29.74,NE,45,0.0,0.0,99,0.00,,,0.97,meteohub,2013-06-11 01:25:00,
2013-06-10 21:30:00,66.7,66.4,29.74,NE,45,0.0,0.0,99,0.00,,,0.97,meteohub,2013-06-11 01:30:00,
2013-06-10 21:35:00,66.7,66.4,29.75,NE,45,0.0,0.0,99,0.01,,,0.98,meteohub,2013-06-11 01:35:00,
2013-06-10 21:40:00,66.7,66.4,29.75,SW,225,0.0,0.0,99,0.01,,,0.98,meteohub,2013-06-11 01:40:00,
2013-06-10 21:45:00,66.7,66.4,29.75,SW,225,0.0,0.0,99,0.01,,,0.98,meteohub,2013-06-11 01:45:00,
2013-06-10 21:51:00,66.7,66.4,29.75,SW,225,0.0,0.0,99,0.02,,,0.99,meteohub,2013-06-11 01:51:00,
2013-06-10 21:56:00,66.7,66.4,29.75,SW,225,0.0,0.0,99,0.04,,,1.00,meteohub,2013-06-11 01:56:00,
2013-06-10 22:01:00,66.6,66.2,29.75,SW,225,0.0,0.0,99,0.04,,,1.00,meteohub,2013-06-11 02:01:00,
2013-06-10 22:06:00,66.6,66.2,29.75,SW,225,0.0,0.0,99,0.04,,,1.00,meteohub,2013-06-11 02:06:00,
2013-06-10 22:11:00,66.6,66.2,29.75,NE,45,0.0,0.0,99,0.04,,,1.00,meteohub,2013-06-11 02:11:00,
2013-06-10 22:17:00,66.4,66.0,29.75,NE,45,0.0,0.0,99,0.04,,,1.00,meteohub,2013-06-11 02:17:00,
2013-06-10 22:22:00,66.4,66.0,29.75,NE,45,0.0,0.0,99,0.04,,,1.00,meteohub,2013-06-11 02:22:00,
2013-06-10 22:27:00,66.4,66.0,29.75,NE,45,0.0,0.0,99,0.04,,,1.00,meteohub,2013-06-11 02:27:00,
2013-06-10 22:32:00,66.2,65.8,29.75,NE,45,0.0,0.0,99,0.04,,,1.00,meteohub,2013-06-11 02:32:00,
2013-06-10 22:37:00,66.2,65.8,29.75,NE,45,0.0,0.0,99,0.02,,,1.00,meteohub,2013-06-11 02:37:00,
2013-06-10 22:42:00,66.2,65.8,29.75,NE,45,0.0,0.0,99,0.02,,,1.00,meteohub,2013-06-11 02:42:00,
2013-06-10 22:47:00,66.0,65.7,29.75,NE,45,0.0,0.0,99,0.01,,,1.00,meteohub,2013-06-11 02:47:00,
2013-06-10 22:52:00,65.8,65.5,29.76,NE,45,0.0,0.0,99,0.01,,,1.00,meteohub,2013-06-11 02:52:00,
2013-06-10 22:58:00,65.8,65.5,29.76,NE,45,0.0,0.0,99,0.00,,,1.00,meteohub,2013-06-11 02:58:00,
2013-06-10 23:03:00,65.8,65.5,29.76,NE,45,0.0,0.0,99,0.00,,,1.00,meteohub,2013-06-11 03:03:00,
2013-06-10 23:08:00,65.7,65.3,29.76,NW,315,0.0,0.0,99,0.00,,,1.00,meteohub,2013-06-11 03:08:00,
2013-06-10 23:13:00,65.7,65.3,29.76,NW,315,0.0,0.0,99,0.00,,,1.00,meteohub,2013-06-11 03:13:00,
2013-06-10 23:18:00,65.7,65.3,29.76,NW,315,0.0,0.0,99,0.00,,,1.00,meteohub,2013-06-11 03:18:00,
2013-06-10 23:23:00,65.5,65.1,29.76,North,0,0.0,0.0,99,0.00,,,1.00,meteohub,2013-06-11 03:23:00,
2013-06-10 23:28:00,65.5,65.1,29.76,NW,315,0.0,0.0,99,0.00,,,1.00,meteohub,2013-06-11 03:28:00,
2013-06-10 23:34:00,65.5,65.1,29.76,NW,315,0.0,0.0,99,0.00,,,1.00,meteohub,2013-06-11 03:34:00,
2013-06-10 23:39:00,65.5,65.1,29.76,NW,315,0.0,0.0,99,0.00,,,1.00,meteohub,2013-06-11 03:39:00,
2013-06-10 23:44:00,65.5,65.1,29.76,North,0,0.0,0.0,99,0.00,,,1.00,meteohub,2013-06-11 03:44:00,
2013-06-10 23:49:00,65.5,65.1,29.76,North,0,0.0,0.0,99,0.00,,,1.00,meteohub,2013-06-11 03:49:00,
2013-06-10 23:54:00,65.7,65.3,29.76,North,0,0.0,0.0,99,0.00,,,1.00,meteohub,2013-06-11 03:54:00,